Time;durP1;ratioP1;P1;durP2;ratioP2;P2;SDS_P1;SDS_P2;PMS_P1;PMS_P2;Temp;Humidity;BMP_temperature;BMP_pressure;BME280_temperature;BME280_humidity;BME280_pressure;Samples;Min_cycle;Max_cycle;Signal;HPM_P1;HPM_P2
2023/01/30 00:01:34;;;;;;;2.90;2.45;;;16.10;35.30;;;;;;5126339;27;45341;-69
2023/01/30 00:04:03;;;;;;;2.97;2.20;;;16.00;35.40;;;;;;5127948;27;45370;-69
2023/01/30 00:06:29;;;;;;;1.70;1.60;;;16.10;35.30;;;;;;5129525;27;45571;-69
2023/01/30 00:08:57;;;;;;;2.13;1.85;;;16.10;35.10;;;;;;5129374;27;45197;-69
2023/01/30 00:11:24;;;;;;;2.55;2.25;;;16.20;35.00;;;;;;5129500;27;45384;-69
2023/01/30 00:13:50;;;;;;;2.33;1.88;;;16.20;34.90;;;;;;5129759;27;45636;-69
2023/01/30 00:16:18;;;;;;;1.80;1.70;;;16.30;34.80;;;;;;5129417;27;46684;-69
2023/01/30 00:18:44;;;;;;;2.22;2.03;;;16.40;34.80;;;;;;5129432;27;45142;-69
2023/01/30 00:21:13;;;;;;;2.75;2.10;;;16.40;34.60;;;;;;5129501;27;45183;-69
2023/01/30 00:23:40;;;;;;;2.15;1.95;;;16.50;34.50;;;;;;5129618;27;45402;-69
2023/01/30 00:26:08;;;;;;;2.22;2.03;;;16.60;34.30;;;;;;5129213;27;45589;-69
2023/01/30 00:28:35;;;;;;;3.83;2.17;;;16.60;34.30;;;;;;5129350;27;45303;-69
2023/01/30 00:31:02;;;;;;;2.30;2.10;;;16.60;34.80;;;;;;5129493;27;45255;-69
2023/01/30 00:33:29;;;;;;;2.10;1.90;;;16.60;34.20;;;;;;5129414;27;45562;-69
2023/01/30 00:35:56;;;;;;;2.08;1.80;;;16.60;34.10;;;;;;5129020;27;45454;-69
2023/01/30 00:38:24;;;;;;;2.45;2.25;;;16.60;34.20;;;;;;5128990;27;45216;-69
2023/01/30 00:40:51;;;;;;;2.65;2.10;;;16.60;34.30;;;;;;5129207;27;45190;-69
2023/01/30 00:48:49;;;;;;;1.83;1.67;;;16.40;34.40;;;;;;5126332;27;45444;-68
2023/01/30 00:51:16;;;;;;;2.30;2.10;;;16.40;34.50;;;;;;5129177;27;45309;-69
2023/01/30 00:53:44;;;;;;;2.55;2.00;;;16.30;34.60;;;;;;5129296;27;45435;-69
2023/01/30 00:56:11;;;;;;;2.10;1.90;;;16.30;34.70;;;;;;5128737;27;45296;-69
2023/01/30 00:58:38;;;;;;;2.47;1.90;;;16.20;34.70;;;;;;5128770;27;45445;-69
2023/01/30 01:01:04;;;;;;;3.42;1.85;;;16.20;34.90;;;;;;5128904;27;44793;-69
2023/01/30 01:03:31;;;;;;;2.20;2.00;;;16.10;34.90;;;;;;5129034;27;45294;-69
2023/01/30 01:05:58;;;;;;;2.72;1.92;;;16.10;35.00;;;;;;5128589;27;46341;-69
2023/01/30 01:08:25;;;;;;;2.15;1.95;;;16.10;35.10;;;;;;5128551;27;45289;-68
2023/01/30 01:10:53;;;;;;;1.85;1.75;;;16.00;35.10;;;;;;5128715;27;45202;-69
2023/01/30 01:13:20;;;;;;;2.35;1.88;;;16.00;35.10;;;;;;5128801;27;45277;-69
2023/01/30 01:15:47;;;;;;;1.95;1.60;;;16.10;35.00;;;;;;5128091;27;46579;-69
2023/01/30 01:18:14;;;;;;;2.00;1.90;;;16.10;34.90;;;;;;5128543;27;45215;-69
2023/01/30 01:20:41;;;;;;;2.20;2.00;;;16.20;34.90;;;;;;5128506;27;45207;-69
2023/01/30 01:23:09;;;;;;;1.80;1.70;;;16.30;34.70;;;;;;5128591;27;45315;-69
2023/01/30 01:25:36;;;;;;;2.03;1.77;;;16.40;34.50;;;;;;5128259;27;45306;-69
2023/01/30 01:28:05;;;;;;;2.45;1.60;;;16.40;34.40;;;;;;5128148;27;45724;-69
2023/01/30 01:30:32;;;;;;;1.77;1.67;;;16.50;34.30;;;;;;5128451;27;45176;-69
2023/01/30 01:32:59;;;;;;;2.30;2.10;;;16.50;34.20;;;;;;5128532;27;45364;-69
2023/01/30 01:35:25;;;;;;;2.15;1.80;;;16.50;34.10;;;;;;5128034;27;45477;-69
2023/01/30 01:37:54;;;;;;;2.00;1.90;;;16.50;34.10;;;;;;5128112;27;45463;-69
2023/01/30 01:43:16;;;;;;;1.90;1.80;;;16.50;34.20;;;;;;5128694;27;45258;-68
2023/01/30 01:45:44;;;;;;;2.10;1.77;;;16.50;34.40;;;;;;5127887;27;45462;-69
2023/01/30 01:48:12;;;;;;;1.65;1.55;;;16.40;34.40;;;;;;5128158;27;45378;-69
2023/01/30 01:50:41;;;;;;;1.65;1.55;;;16.40;34.50;;;;;;5128139;27;45192;-69
2023/01/30 01:53:08;;;;;;;1.98;1.77;;;16.40;34.60;;;;;;5128274;27;45305;-69
2023/01/30 01:55:35;;;;;;;2.42;1.80;;;16.30;34.60;;;;;;5127665;27;45772;-69
2023/01/30 01:58:03;;;;;;;1.90;1.70;;;16.30;34.70;;;;;;5127926;27;45433;-69
2023/01/30 02:00:31;;;;;;;1.60;1.50;;;16.20;34.80;;;;;;5127889;27;45200;-69
2023/01/30 02:03:00;;;;;;;1.83;1.70;;;16.20;34.90;;;;;;5128062;27;45367;-69
2023/01/30 02:05:28;;;;;;;1.80;1.67;;;16.10;35.00;;;;;;5127647;27;45252;-69
2023/01/30 02:07:58;;;;;;;2.35;2.15;;;16.10;35.10;;;;;;5127726;27;45154;-69
2023/01/30 02:10:27;;;;;;;3.95;1.65;;;16.10;35.10;;;;;;5127528;27;45306;-69
2023/01/30 02:12:54;;;;;;;1.60;1.50;;;16.10;35.20;;;;;;5127968;27;45213;-70
2023/01/30 02:15:21;;;;;;;1.63;1.52;;;16.00;35.30;;;;;;5127411;27;45211;-69
2023/01/30 02:17:49;;;;;;;1.70;1.60;;;16.00;35.40;;;;;;5127660;27;45609;-69
2023/01/30 02:20:21;;;;;;;1.75;1.60;;;16.00;35.30;;;;;;5127525;27;45413;-69
2023/01/30 02:23:33;;;;;;;1.58;1.48;;;16.10;35.30;;;;;;5127643;27;45486;-70
2023/01/30 02:26:20;;;;;;;1.63;1.52;;;16.10;35.20;;;;;;5101283;27;46578;-69
2023/01/30 02:29:08;;;;;;;1.50;1.40;;;16.20;35.00;;;;;;5127400;27;45167;-69
2023/01/30 02:31:39;;;;;;;2.53;2.10;;;16.30;34.90;;;;;;5127603;27;45328;-69
2023/01/30 02:34:13;;;;;;;2.95;1.60;;;16.40;34.80;;;;;;5127619;27;45146;-69
2023/01/30 02:36:45;;;;;;;1.50;1.40;;;16.50;34.60;;;;;;5127248;27;45277;-69
2023/01/30 02:39:18;;;;;;;1.73;1.63;;;16.50;34.40;;;;;;5127063;27;45278;-69
2023/01/30 02:41:48;;;;;;;1.83;1.73;;;16.60;34.40;;;;;;5127139;27;45236;-69
2023/01/30 02:44:17;;;;;;;1.80;1.70;;;16.60;34.40;;;;;;5127624;27;45197;-69
2023/01/30 02:46:49;;;;;;;1.95;1.83;;;16.60;34.40;;;;;;5126979;27;47089;-69
2023/01/30 02:49:17;;;;;;;1.95;1.75;;;16.50;34.40;;;;;;5127070;27;45165;-69
2023/01/30 02:51:44;;;;;;;1.80;1.70;;;16.50;34.50;;;;;;5127267;27;45313;-69
2023/01/30 02:54:11;;;;;;;2.22;1.50;;;16.50;34.60;;;;;;5127163;27;45587;-69
2023/01/30 02:56:45;;;;;;;1.80;1.60;;;16.40;34.60;;;;;;5126907;27;46396;-69
2023/01/30 02:59:12;;;;;;;2.00;1.83;;;16.40;34.70;;;;;;5126835;27;45354;-69
2023/01/30 03:01:58;;;;;;;1.50;1.40;;;16.30;34.80;;;;;;5127087;27;45272;-69
2023/01/30 03:04:45;;;;;;;1.85;1.50;;;16.30;34.90;;;;;;5127265;27;45182;-69
2023/01/30 03:07:17;;;;;;;2.05;1.67;;;16.30;35.00;;;;;;5123194;27;48480;-69
2023/01/30 03:09:47;;;;;;;1.85;1.60;;;16.20;35.10;;;;;;5126590;27;45216;-69
2023/01/30 03:12:17;;;;;;;1.83;1.67;;;16.10;35.10;;;;;;5126892;27;45264;-69
2023/01/30 03:14:47;;;;;;;1.92;1.80;;;16.10;35.20;;;;;;5126894;27;45493;-69
2023/01/30 03:17:15;;;;;;;1.73;1.63;;;16.00;35.20;;;;;;5126654;27;46803;-69
2023/01/30 03:19:42;;;;;;;2.08;1.98;;;16.00;35.30;;;;;;5126386;27;45413;-69
2023/01/30 03:22:09;;;;;;;1.70;1.60;;;16.00;35.40;;;;;;5126833;27;45299;-69
2023/01/30 03:24:36;;;;;;;1.60;1.50;;;16.00;35.50;;;;;;5126974;27;45181;-69
2023/01/30 03:27:04;;;;;;;1.73;1.63;;;16.00;35.40;;;;;;5126432;27;45203;-69
2023/01/30 03:29:31;;;;;;;1.85;1.50;;;16.10;35.30;;;;;;5126517;27;45314;-69
2023/01/30 03:31:58;;;;;;;2.38;1.65;;;16.10;35.20;;;;;;5126659;27;45298;-69
2023/01/30 03:34:26;;;;;;;1.85;1.75;;;16.20;35.10;;;;;;5126774;27;45260;-69
2023/01/30 03:36:53;;;;;;;2.28;1.63;;;16.30;34.90;;;;;;5126312;27;46193;-69
2023/01/30 03:39:20;;;;;;;1.90;1.50;;;16.30;34.70;;;;;;5129986;27;45321;-69
2023/01/30 03:41:47;;;;;;;1.67;1.58;;;16.40;34.60;;;;;;5130193;27;45330;-69
2023/01/30 03:44:14;;;;;;;1.90;1.70;;;16.50;34.50;;;;;;5130399;27;45299;-69
2023/01/30 03:46:41;;;;;;;1.88;1.50;;;16.50;34.50;;;;;;5129864;27;46437;-69
2023/01/30 03:49:07;;;;;;;1.83;1.73;;;16.50;34.40;;;;;;5129999;27;45197;-69
2023/01/30 03:51:36;;;;;;;1.90;1.55;;;16.50;34.50;;;;;;5130018;27;45290;-69
2023/01/30 03:54:03;;;;;;;2.08;1.50;;;16.50;34.50;;;;;;5130150;27;45489;-69
2023/01/30 03:56:30;;;;;;;1.60;1.50;;;16.40;34.50;;;;;;5129809;27;45489;-69
2023/01/30 03:58:57;;;;;;;1.63;1.50;;;16.40;34.60;;;;;;5130009;27;45187;-69
2023/01/30 04:01:24;;;;;;;1.60;1.50;;;16.40;34.70;;;;;;5130028;27;45175;-69
2023/01/30 04:03:51;;;;;;;1.67;1.50;;;16.30;34.80;;;;;;5130029;27;45316;-69
2023/01/30 04:06:18;;;;;;;1.45;1.35;;;16.30;34.80;;;;;;5129561;27;45373;-69
2023/01/30 04:08:47;;;;;;;1.80;1.60;;;16.30;34.90;;;;;;5129390;27;45251;-70
2023/01/30 04:11:14;;;;;;;1.27;1.17;;;16.20;35.00;;;;;;5129803;27;45160;-70
2023/01/30 04:13:41;;;;;;;1.77;1.55;;;16.10;35.10;;;;;;5129823;27;45285;-70
2023/01/30 04:16:15;;;;;;;1.80;1.70;;;16.10;35.30;;;;;;5129548;27;45561;-69
2023/01/30 04:18:42;;;;;;;1.50;1.40;;;16.10;35.20;;;;;;5129462;27;45267;-68
2023/01/30 04:21:09;;;;;;;1.60;1.50;;;16.00;35.20;;;;;;5129575;27;45293;-68
2023/01/30 04:23:35;;;;;;;1.65;1.55;;;16.00;35.30;;;;;;5129609;27;45168;-68
2023/01/30 04:26:04;;;;;;;1.77;1.40;;;16.00;35.40;;;;;;5129247;27;46754;-69
2023/01/30 04:28:31;;;;;;;2.00;1.42;;;15.90;35.40;;;;;;5129286;27;45252;-69
2023/01/30 04:30:57;;;;;;;1.63;1.27;;;16.00;35.40;;;;;;5129531;27;45318;-69
2023/01/30 04:33:24;;;;;;;1.48;1.38;;;16.10;35.20;;;;;;5129568;27;45406;-69
2023/01/30 04:35:52;;;;;;;1.92;1.58;;;16.10;35.10;;;;;;5129150;27;45470;-69
2023/01/30 04:38:19;;;;;;;1.40;1.30;;;16.20;35.00;;;;;;5129101;27;45265;-69
2023/01/30 04:40:48;;;;;;;1.42;1.30;;;16.20;34.90;;;;;;5108535;27;45315;-69
2023/01/30 04:43:17;;;;;;;1.50;1.40;;;16.30;34.70;;;;;;5108654;27;45514;-69
2023/01/30 04:45:44;;;;;;;1.35;1.20;;;16.50;34.60;;;;;;5108362;27;47336;-70
2023/01/30 04:48:11;;;;;;;1.45;1.35;;;16.50;34.50;;;;;;5108516;27;45201;-69
2023/01/30 04:50:38;;;;;;;1.95;1.60;;;16.50;34.40;;;;;;5117157;27;45354;-68
2023/01/30 04:53:05;;;;;;;1.67;1.52;;;16.50;34.40;;;;;;5129345;27;45371;-69
2023/01/30 04:55:31;;;;;;;1.48;1.38;;;16.50;34.40;;;;;;5128788;27;46350;-68
2023/01/30 04:57:58;;;;;;;1.75;1.42;;;16.50;34.50;;;;;;5128811;27;45164;-69
2023/01/30 05:00:27;;;;;;;1.70;1.60;;;16.40;34.40;;;;;;5128908;27;45199;-70
2023/01/30 05:02:54;;;;;;;1.70;1.48;;;16.40;34.60;;;;;;5128933;27;45216;-70
2023/01/30 05:05:21;;;;;;;1.40;1.30;;;16.40;34.60;;;;;;5128752;27;45469;-69
2023/01/30 05:07:48;;;;;;;2.15;1.48;;;16.30;34.70;;;;;;5128668;27;45182;-69
2023/01/30 05:10:15;;;;;;;1.35;1.23;;;16.30;34.80;;;;;;5128568;27;45112;-69
2023/01/30 05:12:42;;;;;;;1.77;1.40;;;16.30;34.90;;;;;;5128722;27;45524;-69
2023/01/30 05:15:10;;;;;;;1.73;1.60;;;16.20;35.00;;;;;;5128565;27;47296;-69
2023/01/30 05:17:38;;;;;;;1.50;1.40;;;16.10;35.00;;;;;;5128560;27;45186;-69
2023/01/30 05:20:06;;;;;;;1.50;1.40;;;16.10;35.10;;;;;;5128634;27;45238;-69
2023/01/30 05:22:32;;;;;;;1.80;1.70;;;16.10;35.20;;;;;;5128465;27;45332;-69
2023/01/30 05:24:59;;;;;;;1.50;1.40;;;16.00;35.30;;;;;;5128362;27;45274;-69
2023/01/30 05:27:26;;;;;;;1.70;1.60;;;16.00;35.40;;;;;;5128656;27;45287;-69
2023/01/30 05:29:53;;;;;;;1.30;1.20;;;15.90;35.40;;;;;;5128666;27;45276;-69
2023/01/30 05:32:20;;;;;;;1.50;1.40;;;15.90;35.50;;;;;;5128674;27;45455;-68
2023/01/30 05:34:49;;;;;;;2.10;1.50;;;16.00;35.50;;;;;;5128130;27;45335;-68
2023/01/30 05:37:16;;;;;;;1.50;1.40;;;16.10;35.40;;;;;;5128031;27;45197;-70
2023/01/30 05:39:43;;;;;;;1.63;1.52;;;16.10;35.30;;;;;;5128242;27;45202;-69
2023/01/30 05:42:10;;;;;;;1.50;1.40;;;16.10;35.10;;;;;;5128351;27;45382;-69
2023/01/30 05:44:37;;;;;;;1.48;1.38;;;16.20;35.00;;;;;;5127988;27;46397;-69
2023/01/30 05:47:04;;;;;;;1.50;1.35;;;16.30;34.90;;;;;;5128154;27;45393;-68
2023/01/30 05:49:30;;;;;;;1.48;1.38;;;16.40;34.80;;;;;;5128164;27;45252;-69
2023/01/30 05:51:59;;;;;;;1.65;1.50;;;16.50;34.60;;;;;;5128296;27;45399;-69
2023/01/30 05:54:26;;;;;;;1.70;1.60;;;16.50;35.10;;;;;;5127728;27;46526;-69
2023/01/30 05:56:53;;;;;;;1.77;1.67;;;16.50;34.50;;;;;;5127768;27;45300;-69
2023/01/30 05:59:20;;;;;;;1.35;1.25;;;16.50;34.50;;;;;;5127980;27;45419;-69
2023/01/30 06:01:47;;;;;;;1.38;1.27;;;16.50;34.50;;;;;;5126761;27;45391;-69
2023/01/30 06:04:14;;;;;;;1.73;1.30;;;16.50;34.50;;;;;;5127665;27;45396;-69
2023/01/30 06:06:41;;;;;;;1.45;1.33;;;16.40;34.50;;;;;;5127616;27;45143;-69
2023/01/30 06:09:10;;;;;;;1.50;1.40;;;16.40;34.60;;;;;;5127493;27;45351;-69
2023/01/30 06:11:36;;;;;;;1.50;1.40;;;16.40;34.70;;;;;;5127994;27;45428;-69
2023/01/30 06:14:04;;;;;;;1.30;1.20;;;16.40;34.80;;;;;;5127452;27;45225;-69
2023/01/30 06:16:30;;;;;;;1.77;1.48;;;16.30;34.80;;;;;;5127598;27;45142;-69
2023/01/30 06:18:57;;;;;;;1.35;1.25;;;16.30;34.90;;;;;;5127563;27;45328;-69
2023/01/30 06:21:24;;;;;;;1.38;1.27;;;16.20;35.00;;;;;;5127666;27;45639;-69
2023/01/30 06:23:51;;;;;;;1.50;1.40;;;16.20;35.10;;;;;;5127330;27;45326;-69
2023/01/30 06:26:19;;;;;;;1.50;1.35;;;16.20;35.10;;;;;;5127270;27;45219;-68
2023/01/30 06:28:47;;;;;;;1.60;1.50;;;16.10;35.20;;;;;;5127481;27;45205;-71
2023/01/30 06:31:15;;;;;;;1.58;1.23;;;16.10;35.30;;;;;;5127432;27;45463;-70
2023/01/30 06:33:42;;;;;;;1.70;1.60;;;16.00;35.40;;;;;;5127197;27;47590;-71
2023/01/30 06:36:09;;;;;;;1.23;1.13;;;16.00;35.60;;;;;;5127256;27;45267;-70
2023/01/30 06:38:36;;;;;;;1.75;1.60;;;16.00;35.60;;;;;;5127231;27;45199;-70
2023/01/30 06:41:03;;;;;;;2.22;1.83;;;15.90;35.60;;;;;;5127497;27;45492;-71
2023/01/30 06:43:31;;;;;;;2.95;1.65;;;15.90;35.60;;;;;;5126921;27;45376;-71
2023/01/30 06:45:58;;;;;;;1.90;1.67;;;16.00;35.50;;;;;;5127130;27;45208;-71
2023/01/30 06:48:25;;;;;;;1.80;1.70;;;16.00;35.40;;;;;;5127153;27;45190;-71
2023/01/30 06:50:52;;;;;;;2.05;1.85;;;16.10;35.30;;;;;;5127340;27;45403;-71
2023/01/30 06:53:19;;;;;;;2.33;2.10;;;16.20;35.20;;;;;;5126881;27;45356;-71
2023/01/30 06:55:46;;;;;;;2.60;1.98;;;16.30;35.10;;;;;;5126975;27;45340;-70
2023/01/30 06:58:14;;;;;;;2.20;1.95;;;16.40;34.90;;;;;;5127147;27;45286;-70
2023/01/30 07:00:42;;;;;;;5.90;2.25;;;16.40;34.70;;;;;;5127229;27;45323;-70
2023/01/30 07:03:10;;;;;;;2.45;2.20;;;16.50;34.70;;;;;;5126604;27;45237;-70
2023/01/30 07:05:38;;;;;;;3.85;2.30;;;16.50;34.60;;;;;;5126830;27;45294;-70
2023/01/30 07:08:05;;;;;;;2.22;2.03;;;16.50;34.60;;;;;;5126858;27;45192;-70
2023/01/30 07:10:32;;;;;;;3.25;2.30;;;16.50;34.60;;;;;;5126667;27;45216;-70
2023/01/30 07:12:58;;;;;;;2.60;2.30;;;16.50;34.60;;;;;;5126198;27;46664;-70
2023/01/30 07:15:25;;;;;;;3.33;2.15;;;16.50;34.70;;;;;;5126515;27;45320;-70
2023/01/30 07:17:54;;;;;;;5.57;2.38;;;16.40;34.70;;;;;;5126809;27;45288;-70
2023/01/30 07:20:20;;;;;;;3.30;2.10;;;16.40;34.80;;;;;;5126830;27;45433;-70
2023/01/30 07:22:50;;;;;;;2.70;2.35;;;16.30;34.90;;;;;;5126277;27;45222;-70
2023/01/30 07:25:17;;;;;;;2.72;2.28;;;16.30;35.00;;;;;;5126440;27;45313;-70
2023/01/30 07:27:44;;;;;;;2.97;2.78;;;16.20;35.10;;;;;;5126354;27;45212;-70
2023/01/30 07:30:12;;;;;;;2.60;2.40;;;16.20;35.20;;;;;;5125884;27;45127;-70
2023/01/30 07:32:39;;;;;;;3.55;2.60;;;16.10;35.90;;;;;;5126261;27;45313;-70
2023/01/30 07:35:08;;;;;;;4.28;2.47;;;16.10;35.30;;;;;;5126188;27;45276;-70
2023/01/30 07:37:35;;;;;;;2.42;2.03;;;16.10;35.40;;;;;;5126233;27;45333;-70
2023/01/30 07:40:02;;;;;;;3.30;2.17;;;16.00;35.70;;;;;;5126414;27;45404;-70
2023/01/30 07:42:29;;;;;;;2.90;2.33;;;16.00;35.60;;;;;;5125875;27;45560;-70
2023/01/30 07:44:56;;;;;;;2.30;2.10;;;15.90;35.50;;;;;;5126068;27;45353;-70
2023/01/30 07:47:22;;;;;;;4.00;2.47;;;15.90;35.60;;;;;;5126345;27;45243;-70
2023/01/30 07:49:49;;;;;;;4.55;2.38;;;16.00;35.60;;;;;;5126666;27;45511;-70
2023/01/30 07:52:18;;;;;;;3.13;2.65;;;16.00;35.50;;;;;;5125891;27;46413;-70
2023/01/30 07:54:44;;;;;;;3.10;2.53;;;16.10;35.40;;;;;;5126052;27;45292;-70
2023/01/30 07:57:11;;;;;;;4.57;2.95;;;16.20;35.90;;;;;;5126225;27;45211;-70
2023/01/30 07:59:38;;;;;;;3.03;2.58;;;16.20;35.10;;;;;;5126206;27;45444;-70
2023/01/30 08:02:05;;;;;;;3.83;3.03;;;16.30;35.00;;;;;;5125853;27;46362;-70
2023/01/30 08:04:32;;;;;;;3.60;2.95;;;16.40;34.90;;;;;;5125823;27;45217;-70
2023/01/30 08:06:59;;;;;;;3.25;2.95;;;16.50;34.90;;;;;;5126044;27;45324;-70
2023/01/30 08:09:27;;;;;;;6.00;2.92;;;16.50;34.70;;;;;;5125857;27;45289;-69
2023/01/30 08:11:54;;;;;;;3.70;3.30;;;16.50;34.70;;;;;;5125740;27;45231;-70
2023/01/30 08:14:22;;;;;;;8.60;3.28;;;16.50;34.70;;;;;;5125830;27;45203;-70
2023/01/30 08:16:51;;;;;;;4.38;3.15;;;16.50;34.80;;;;;;5126014;27;45259;-70
2023/01/30 08:19:17;;;;;;;5.53;3.42;;;16.50;34.90;;;;;;5125905;27;45314;-70
2023/01/30 08:21:45;;;;;;;5.00;3.38;;;16.40;34.90;;;;;;5125591;27;45277;-69
2023/01/30 08:24:11;;;;;;;3.92;3.25;;;16.40;35.00;;;;;;5126139;27;45194;-69
2023/01/30 08:26:40;;;;;;;4.38;3.40;;;16.30;35.00;;;;;;5129320;27;45216;-70
2023/01/30 08:29:06;;;;;;;5.28;3.28;;;16.30;35.10;;;;;;5129396;27;45470;-69
2023/01/30 08:31:33;;;;;;;7.47;4.03;;;16.30;35.20;;;;;;5128939;27;45308;-69
2023/01/30 08:34:00;;;;;;;7.18;3.50;;;16.30;35.30;;;;;;5129130;27;45220;-70
2023/01/30 08:36:27;;;;;;;4.97;3.17;;;16.30;35.40;;;;;;5129097;27;45188;-70
2023/01/30 08:38:54;;;;;;;4.70;3.50;;;16.20;35.40;;;;;;5129498;27;45339;-70
2023/01/30 08:41:21;;;;;;;6.07;3.40;;;16.20;35.50;;;;;;5128929;27;45476;-69
2023/01/30 08:43:49;;;;;;;7.15;3.60;;;16.10;35.60;;;;;;5128908;27;45471;-70
2023/01/30 08:46:18;;;;;;;5.45;3.67;;;16.10;35.70;;;;;;5129135;27;45191;-70
2023/01/30 08:48:45;;;;;;;8.73;4.00;;;16.10;35.80;;;;;;5129218;27;45269;-70
2023/01/30 08:51:12;;;;;;;7.05;3.40;;;16.00;35.80;;;;;;5128917;27;45927;-70
2023/01/30 08:53:39;;;;;;;5.63;3.85;;;16.00;35.90;;;;;;5128848;27;45302;-69
2023/01/30 08:56:06;;;;;;;4.97;3.95;;;16.00;36.00;;;;;;5128878;27;45204;-70
2023/01/30 08:58:33;;;;;;;7.93;4.68;;;16.10;35.90;;;;;;5129177;27;45404;-70
2023/01/30 09:01:05;;;;;;;10.55;4.95;;;16.10;35.90;;;;;;5128439;27;45746;-70
2023/01/30 09:03:32;;;;;;;8.32;4.13;;;16.10;35.70;;;;;;5128622;27;45191;-70
2023/01/30 09:05:59;;;;;;;7.85;4.32;;;16.20;35.60;;;;;;5128820;27;45219;-70
2023/01/30 09:08:26;;;;;;;10.40;5.28;;;16.30;35.60;;;;;;5128738;27;45377;-70
2023/01/30 09:10:53;;;;;;;6.95;4.68;;;16.40;35.40;;;;;;5128491;27;46427;-70
2023/01/30 09:13:20;;;;;;;11.38;4.88;;;16.40;35.30;;;;;;5128541;27;45239;-70
2023/01/30 09:15:46;;;;;;;9.32;5.07;;;16.40;35.30;;;;;;5128628;27;45306;-70
2023/01/30 09:18:14;;;;;;;8.82;5.30;;;16.50;35.30;;;;;;5128869;27;45486;-70
2023/01/30 09:20:41;;;;;;;8.75;4.75;;;16.50;35.30;;;;;;5128301;27;46407;-70
2023/01/30 09:23:08;;;;;;;9.68;5.65;;;16.50;35.30;;;;;;5128204;27;45312;-70
2023/01/30 09:25:35;;;;;;;10.50;6.35;;;16.40;35.30;;;;;;5128509;27;45186;-70
2023/01/30 09:28:02;;;;;;;6.70;4.97;;;16.40;36.00;;;;;;5128620;27;45183;-69
2023/01/30 09:30:28;;;;;;;8.52;6.22;;;16.40;35.40;;;;;;5128148;27;46210;-70
2023/01/30 09:32:55;;;;;;;14.70;6.10;;;16.30;35.50;;;;;;5128486;27;45366;-69
2023/01/30 09:35:24;;;;;;;10.82;6.88;;;16.30;35.60;;;;;;5128011;27;45331;-70
2023/01/30 09:37:51;;;;;;;10.85;5.50;;;16.30;35.70;;;;;;5128430;27;45178;-69
2023/01/30 09:40:20;;;;;;;10.50;5.60;;;16.20;35.70;;;;;;5127747;27;46426;-70
2023/01/30 09:43:14;;;;;;;9.38;5.55;;;16.20;35.80;;;;;;5127922;27;45363;-70
2023/01/30 09:45:48;;;;;;;17.95;6.15;;;16.20;35.90;;;;;;5128153;27;45280;-70
2023/01/30 09:48:18;;;;;;;15.02;5.95;;;16.20;35.90;;;;;;5128307;27;45318;-70
2023/01/30 09:51:10;;;;;;;7.40;5.30;;;16.20;36.00;;;;;;5128136;27;46413;-69
2023/01/30 09:53:40;;;;;;;8.82;5.43;;;16.10;36.10;;;;;;5127945;27;45298;-70
2023/01/30 09:56:07;;;;;;;9.85;5.78;;;16.00;36.10;;;;;;5128021;27;45252;-69
2023/01/30 09:58:41;;;;;;;9.23;5.20;;;16.00;36.20;;;;;;5128469;27;45176;-69
2023/01/30 10:01:13;;;;;;;11.20;5.88;;;16.00;36.30;;;;;;5127737;27;47284;-69
2023/01/30 10:03:41;;;;;;;7.22;4.80;;;16.10;36.30;;;;;;5127730;27;45302;-69
2023/01/30 10:06:12;;;;;;;6.78;5.07;;;16.10;36.20;;;;;;5125148;27;45185;-71
2023/01/30 10:08:44;;;;;;;11.88;5.40;;;16.10;36.10;;;;;;5127758;27;45394;-69
2023/01/30 10:11:18;;;;;;;11.73;5.45;;;16.20;36.00;;;;;;5127628;27;47289;-71
2023/01/30 10:13:56;;;;;;;8.38;4.82;;;16.20;35.90;;;;;;5127646;27;45141;-71
2023/01/30 10:16:25;;;;;;;8.02;5.05;;;16.30;35.80;;;;;;5127706;27;45232;-71
2023/01/30 10:19:12;;;;;;;10.20;6.10;;;16.40;35.60;;;;;;5127682;27;45127;-71
2023/01/30 10:21:46;;;;;;;6.80;4.85;;;16.50;35.50;;;;;;5127392;27;45497;-71
2023/01/30 10:24:19;;;;;;;9.55;4.85;;;16.50;35.40;;;;;;5127430;27;45208;-71
2023/01/30 10:26:46;;;;;;;9.80;5.57;;;16.60;35.40;;;;;;5127774;27;45184;-71
2023/01/30 10:29:15;;;;;;;10.85;5.10;;;16.60;35.40;;;;;;5127697;27;45249;-71
2023/01/30 10:31:43;;;;;;;9.40;5.80;;;16.60;35.40;;;;;;5127125;27;46398;-70
2023/01/30 10:34:14;;;;;;;9.40;5.28;;;16.60;35.50;;;;;;5127225;27;45295;-71
2023/01/30 10:36:45;;;;;;;12.85;5.88;;;16.60;35.50;;;;;;5127491;27;45275;-71
2023/01/30 10:39:26;;;;;;;8.32;5.13;;;16.60;35.60;;;;;;5127542;27;45184;-71
2023/01/30 10:41:57;;;;;;;8.10;4.82;;;16.50;35.60;;;;;;5127003;27;46604;-70
2023/01/30 10:44:24;;;;;;;8.30;4.88;;;16.50;35.60;;;;;;5127051;27;45174;-70
2023/01/30 10:47:08;;;;;;;7.50;5.35;;;16.50;35.70;;;;;;5126796;27;45468;-71
2023/01/30 10:49:39;;;;;;;6.28;4.80;;;16.50;35.60;;;;;;5127557;27;45205;-70
2023/01/30 10:52:16;;;;;;;10.63;4.95;;;16.50;35.70;;;;;;5126862;27;46388;-70
2023/01/30 10:54:46;;;;;;;8.10;4.47;;;16.50;35.80;;;;;;5127058;27;45192;-70
2023/01/30 10:57:15;;;;;;;7.20;4.95;;;16.50;35.90;;;;;;5127409;27;45337;-70
2023/01/30 10:59:48;;;;;;;7.20;4.85;;;16.40;36.00;;;;;;5127218;27;45214;-70
2023/01/30 11:02:24;;;;;;;5.55;4.93;;;16.40;36.10;;;;;;5126673;27;45403;-70
2023/01/30 11:04:56;;;;;;;7.95;5.00;;;16.30;36.20;;;;;;5126525;27;45295;-71
2023/01/30 11:07:24;;;;;;;7.60;4.43;;;16.30;36.30;;;;;;5126825;27;45345;-70
2023/01/30 11:09:51;;;;;;;5.38;4.50;;;16.20;36.30;;;;;;5126677;27;45474;-70
2023/01/30 11:12:18;;;;;;;8.27;4.40;;;16.20;36.30;;;;;;5126760;27;46798;-70
2023/01/30 11:14:53;;;;;;;6.10;4.43;;;16.20;36.40;;;;;;5126689;27;45160;-70
2023/01/30 11:17:20;;;;;;;5.68;4.30;;;16.20;36.50;;;;;;5126672;27;45238;-70
2023/01/30 11:19:54;;;;;;;6.32;4.30;;;16.20;36.50;;;;;;5126789;27;45403;-70
2023/01/30 11:22:21;;;;;;;7.25;3.90;;;16.20;36.60;;;;;;5123910;27;45402;-71
2023/01/30 11:24:49;;;;;;;9.10;4.10;;;16.20;36.50;;;;;;5127364;27;45263;-71
2023/01/30 11:27:18;;;;;;;5.57;3.97;;;16.30;36.40;;;;;;5127255;27;45195;-70
2023/01/30 11:29:45;;;;;;;6.47;4.00;;;16.30;36.30;;;;;;5127205;27;45469;-70
2023/01/30 11:32:13;;;;;;;6.85;3.65;;;16.40;36.20;;;;;;5127219;27;45385;-71
2023/01/30 11:34:41;;;;;;;6.53;4.20;;;16.50;36.10;;;;;;5127641;27;45386;-71
2023/01/30 11:37:15;;;;;;;7.68;3.85;;;16.50;35.90;;;;;;5126526;27;45221;-70
2023/01/30 11:39:50;;;;;;;6.22;4.05;;;16.50;35.80;;;;;;5126630;27;45413;-70
2023/01/30 11:42:18;;;;;;;5.95;3.85;;;16.70;35.80;;;;;;5126122;27;46482;-70
2023/01/30 11:44:45;;;;;;;6.18;3.53;;;16.70;35.70;;;;;;5126396;27;45255;-70
2023/01/30 11:47:15;;;;;;;4.90;3.33;;;16.70;35.70;;;;;;5126576;27;45360;-70
2023/01/30 11:49:45;;;;;;;6.15;3.88;;;16.80;35.70;;;;;;5126804;27;45340;-70
2023/01/30 11:52:12;;;;;;;4.05;3.65;;;16.80;35.70;;;;;;5126116;27;46947;-70
2023/01/30 11:54:40;;;;;;;4.25;3.30;;;16.80;35.70;;;;;;5126305;27;45260;-70
2023/01/30 11:57:10;;;;;;;7.50;3.60;;;16.80;35.70;;;;;;5126203;27;45271;-70
2023/01/30 11:59:40;;;;;;;4.55;3.70;;;16.70;35.70;;;;;;5127398;27;45237;-70
2023/01/30 12:02:14;;;;;;;6.10;3.38;;;16.70;35.80;;;;;;5129569;27;46418;-70
2023/01/30 12:04:43;;;;;;;7.97;3.40;;;16.70;35.80;;;;;;5129502;27;45324;-70
2023/01/30 12:07:17;;;;;;;6.22;3.78;;;16.70;35.90;;;;;;5129915;27;45253;-71
2023/01/30 12:09:43;;;;;;;3.55;3.10;;;16.70;36.00;;;;;;5129520;27;45193;-70
2023/01/30 12:12:27;;;;;;;6.25;3.30;;;16.70;36.10;;;;;;5129491;27;46726;-71
2023/01/30 12:14:54;;;;;;;6.43;3.30;;;16.60;36.10;;;;;;5129544;27;45150;-70
2023/01/30 12:17:22;;;;;;;4.72;3.40;;;16.60;36.20;;;;;;5129527;27;45209;-71
2023/01/30 12:19:55;;;;;;;5.60;3.42;;;16.50;36.30;;;;;;5129516;27;45302;-70
2023/01/30 12:22:24;;;;;;;5.47;2.88;;;16.50;36.40;;;;;;5129346;27;45374;-70
2023/01/30 12:24:58;;;;;;;3.72;3.08;;;16.50;36.40;;;;;;5129172;27;45237;-70
2023/01/30 12:27:29;;;;;;;3.67;3.17;;;16.40;36.50;;;;;;5129445;27;45240;-70
2023/01/30 12:30:00;;;;;;;3.28;2.88;;;16.40;36.60;;;;;;5129539;27;45264;-70
2023/01/30 12:32:28;;;;;;;3.33;2.80;;;16.40;36.70;;;;;;5129143;27;45241;-71
2023/01/30 12:34:55;;;;;;;4.07;2.95;;;16.30;36.70;;;;;;5129237;27;45149;-70
2023/01/30 12:37:50;;;;;;;6.25;2.90;;;16.30;36.80;;;;;;5129083;27;45178;-70
2023/01/30 12:40:24;;;;;;;3.75;2.50;;;16.30;36.90;;;;;;5129225;27;45216;-70
2023/01/30 12:43:19;;;;;;;4.00;2.80;;;16.30;36.90;;;;;;5129253;27;45242;-70
2023/01/30 12:45:49;;;;;;;4.90;2.50;;;16.30;37.00;;;;;;5120965;27;45301;-70
2023/01/30 12:48:42;;;;;;;4.18;2.70;;;16.20;37.00;;;;;;5129105;27;45346;-71
2023/01/30 12:51:14;;;;;;;4.07;2.60;;;16.30;37.10;;;;;;5129295;27;45402;-70
2023/01/30 12:53:48;;;;;;;3.95;2.42;;;16.30;36.90;;;;;;5128951;27;45564;-70
2023/01/30 12:56:29;;;;;;;3.45;2.75;;;16.40;36.90;;;;;;5128833;27;45144;-70
2023/01/30 12:58:59;;;;;;;3.08;2.35;;;16.50;36.80;;;;;;5128859;27;45376;-70
2023/01/30 13:01:28;;;;;;;3.15;2.38;;;16.60;36.70;;;;;;5129009;27;45250;-70
2023/01/30 13:03:58;;;;;;;2.33;2.20;;;16.60;36.50;;;;;;5128472;27;45634;-70